Time;durP1;ratioP1;P1;durP2;ratioP2;P2;SDS_P1;SDS_P2;PMS_P1;PMS_P2;Temp;Humidity;BMP_temperature;BMP_pressure;BME280_temperature;BME280_humidity;BME280_pressure;Samples;Min_cycle;Max_cycle;Signal;HPM_P1;HPM_P2
2023/06/05 00:01:00;;;;;;;5.75;3.45;;;;;;;10.68;66.48;149977.22;5063568;28;20029;-69
2023/06/05 00:03:26;;;;;;;5.78;3.28;;;;;;;10.69;67.44;149981.06;5064826;28;20028;-69
2023/06/05 00:05:52;;;;;;;6.65;3.28;;;;;;;10.73;67.35;149988.75;5064540;28;20329;-69
2023/06/05 00:08:18;;;;;;;6.80;3.22;;;;;;;10.76;66.76;149997.75;5064742;28;20032;-69
2023/06/05 00:10:44;;;;;;;6.80;3.83;;;;;;;10.75;67.63;149995.16;5064736;28;20032;-68
2023/06/05 00:13:09;;;;;;;6.40;3.30;;;;;;;10.67;66.66;149975.94;5060217;28;20237;-68
2023/06/05 00:15:37;;;;;;;13.18;4.50;;;;;;;10.73;67.50;149990.06;5054086;28;20063;-69
2023/06/05 00:18:03;;;;;;;8.43;3.33;;;;;;;10.77;66.25;150000.28;5064643;28;20028;-69
2023/06/05 00:20:30;;;;;;;5.97;3.38;;;;;;;10.80;65.27;150008.00;5064416;28;20036;-67
2023/06/05 00:22:55;;;;;;;6.72;3.80;;;;;;;10.86;65.13;150023.38;5064359;28;20032;-67
2023/06/05 00:25:21;;;;;;;5.05;3.47;;;;;;;10.87;65.50;150024.66;5063974;28;20051;-68
2023/06/05 00:27:47;;;;;;;7.15;3.97;;;;;;;10.95;66.40;150045.19;5064325;28;20083;-71
2023/06/05 00:30:13;;;;;;;5.13;3.08;;;;;;;10.92;64.86;150036.22;5064320;28;20033;-69
2023/06/05 00:32:39;;;;;;;7.68;3.58;;;;;;;10.90;64.48;150031.06;5063157;28;20310;-69
2023/06/05 00:35:06;;;;;;;5.72;3.55;;;;;;;10.96;65.77;150047.75;5064485;28;20067;-70
2023/06/05 00:37:33;;;;;;;6.35;3.22;;;;;;;11.00;64.76;150056.72;5063977;28;20084;-69
2023/06/05 00:39:59;;;;;;;8.23;3.45;;;;;;;11.04;65.33;150066.97;5064264;28;20298;-69
2023/06/05 00:42:26;;;;;;;5.72;3.45;;;;;;;11.07;66.14;150073.41;5063920;28;20218;-69
2023/06/05 00:44:52;;;;;;;6.47;3.40;;;;;;;11.05;65.97;150070.81;5063877;28;20064;-69
2023/06/05 00:47:18;;;;;;;3.97;2.80;;;;;;;11.11;65.55;150084.94;5063718;28;20056;-69
2023/06/05 00:49:44;;;;;;;5.90;3.17;;;;;;;11.12;65.05;150086.25;5063935;28;20311;-70
2023/06/05 00:52:10;;;;;;;8.77;3.60;;;;;;;11.11;64.76;150084.94;5063871;28;20052;-70
2023/06/05 00:54:36;;;;;;;6.10;3.45;;;;;;;11.13;64.43;150090.09;5063803;28;20033;-71
2023/06/05 00:57:02;;;;;;;5.32;3.08;;;;;;;11.18;64.49;150101.63;5063895;28;20035;-70
2023/06/05 00:59:31;;;;;;;6.78;3.30;;;;;;;11.11;64.14;150084.94;5063666;28;20047;-69
2023/06/05 01:01:58;;;;;;;6.25;3.30;;;;;;;11.12;63.75;150087.53;5063936;28;20332;-70
2023/06/05 01:04:23;;;;;;;7.70;3.55;;;;;;;11.18;64.76;150102.91;5063603;28;20046;-70
2023/06/05 01:06:51;;;;;;;8.82;3.78;;;;;;;11.18;64.26;150102.91;5063630;28;20068;-69
2023/06/05 01:09:18;;;;;;;9.07;3.35;;;;;;;11.18;63.86;150102.91;5062159;28;20230;-69
2023/06/05 01:12:08;;;;;;;7.88;3.97;;;;;;;11.09;63.79;150078.50;5063399;28;20055;-70
2023/06/05 01:14:35;;;;;;;7.28;3.35;;;;;;;11.11;64.16;150084.94;5063445;28;20433;-70
2023/06/05 01:17:03;;;;;;;3.70;2.90;;;;;;;11.18;63.69;150102.91;5063311;28;20372;-70
2023/06/05 01:19:31;;;;;;;5.20;2.95;;;;;;;11.22;64.09;150113.16;5062958;28;20021;-69
2023/06/05 01:21:59;;;;;;;7.50;3.25;;;;;;;11.25;64.93;150119.59;5063381;28;20067;-69
2023/06/05 01:24:27;;;;;;;7.28;3.83;;;;;;;11.27;65.88;150123.44;5063694;28;20060;-68
2023/06/05 01:27:00;;;;;;;7.00;3.53;;;;;;;11.30;65.81;150132.44;5063354;28;20244;-68
2023/06/05 01:29:56;;;;;;;10.57;3.30;;;;;;;11.32;66.20;150136.28;5063130;28;20029;-68
2023/06/05 01:32:36;;;;;;;5.95;2.70;;;;;;;11.11;64.91;150084.94;5043356;28;20053;-68
2023/06/05 01:35:07;;;;;;;8.68;3.25;;;;;;;11.24;64.99;150117.00;5042224;28;20029;-68
2023/06/05 01:37:40;;;;;;;8.18;2.78;;;;;;;11.29;64.63;150128.59;5059915;28;20101;-68
2023/06/05 01:40:22;;;;;;;5.20;3.22;;;;;;;11.34;63.68;150142.72;5063032;28;20051;-67
2023/06/05 01:42:48;;;;;;;5.35;3.42;;;;;;;11.40;65.25;150158.09;5063122;28;20084;-69
2023/06/05 01:45:16;;;;;;;6.45;2.97;;;;;;;11.46;64.56;150172.22;5062835;28;20025;-67
2023/06/05 01:47:42;;;;;;;6.10;4.32;;;;;;;11.51;64.48;150185.03;5062933;28;20029;-69
2023/06/05 01:50:12;;;;;;;4.88;2.90;;;;;;;11.52;63.63;150186.34;5063142;28;20072;-69
2023/06/05 01:52:45;;;;;;;4.25;2.90;;;;;;;11.55;64.32;150195.28;5062736;28;20036;-68
2023/06/05 01:55:20;;;;;;;8.68;3.20;;;;;;;11.54;65.03;150192.75;5063015;28;20032;-68
2023/06/05 01:57:46;;;;;;;6.30;3.33;;;;;;;11.60;64.26;150205.56;5062953;28;20052;-68
2023/06/05 02:00:15;;;;;;;6.78;2.95;;;;;;;11.62;64.74;150210.72;5062650;28;20025;-69
2023/06/05 02:02:42;;;;;;;3.70;2.63;;;;;;;11.63;64.60;150214.56;5062998;28;20116;-68
2023/06/05 02:05:12;;;;;;;4.82;2.53;;;;;;;11.68;63.64;150227.38;5062770;28;20163;-69
2023/06/05 02:07:40;;;;;;;7.90;3.13;;;;;;;11.55;63.87;150194.03;5062629;28;20070;-69
2023/06/05 02:10:08;;;;;;;5.05;3.08;;;;;;;11.67;63.39;150224.84;5062500;28;20306;-69
2023/06/05 02:12:34;;;;;;;3.30;2.90;;;;;;;11.73;63.34;150238.97;5061252;28;20121;-69
2023/06/05 02:15:00;;;;;;;5.25;2.50;;;;;;;11.77;63.01;150247.94;5062456;28;20037;-70
2023/06/05 02:17:26;;;;;;;3.97;2.55;;;;;;;11.81;62.68;150259.47;5062255;28;20039;-70
2023/06/05 02:19:52;;;;;;;3.65;2.80;;;;;;;11.84;63.54;150265.91;5062612;28;20025;-72
2023/06/05 02:22:18;;;;;;;6.43;2.90;;;;;;;11.90;63.01;150281.34;5066425;28;20212;-70
2023/06/05 02:24:44;;;;;;;3.10;2.45;;;;;;;11.89;62.86;150278.75;5066220;28;20218;-69
2023/06/05 02:27:10;;;;;;;3.83;2.35;;;;;;;11.92;62.70;150286.44;5066399;28;20035;-69
2023/06/05 02:29:39;;;;;;;4.53;2.42;;;;;;;11.98;61.94;150300.63;5064894;28;20017;-70
2023/06/05 02:32:06;;;;;;;2.83;2.22;;;;;;;12.05;61.44;150319.84;5066279;28;20032;-70
2023/06/05 02:34:32;;;;;;;6.78;2.38;;;;;;;12.05;60.54;150318.59;5066210;28;20361;-69
2023/06/05 02:36:58;;;;;;;5.32;2.38;;;;;;;12.12;61.38;150335.28;5066569;28;20040;-69
2023/06/05 02:39:25;;;;;;;3.17;2.22;;;;;;;12.13;60.84;150339.13;5065908;28;20020;-68
2023/06/05 02:41:51;;;;;;;4.65;2.55;;;;;;;12.05;60.93;150318.59;5066315;28;20049;-68
2023/06/05 02:44:17;;;;;;;4.05;2.10;;;;;;;12.19;61.82;150353.25;5066039;28;20063;-68
2023/06/05 02:46:42;;;;;;;4.43;2.10;;;;;;;12.20;60.48;150357.13;5066105;28;20025;-67
2023/06/05 02:49:08;;;;;;;5.30;2.63;;;;;;;12.24;61.50;150366.06;5066223;28;20253;-67
2023/06/05 02:51:34;;;;;;;5.13;2.40;;;;;;;12.20;62.50;150355.81;5064688;28;20028;-67
2023/06/05 02:54:00;;;;;;;5.38;2.45;;;;;;;12.21;62.89;150358.38;5065963;28;20052;-67
2023/06/05 02:56:26;;;;;;;5.78;2.55;;;;;;;12.19;61.77;150354.53;5065990;28;20034;-69
2023/06/05 02:58:53;;;;;;;3.40;2.40;;;;;;;12.28;61.16;150375.09;5065948;28;20175;-69
2023/06/05 03:01:21;;;;;;;5.13;2.50;;;;;;;12.26;61.67;150371.25;5065654;28;20313;-69
2023/06/05 03:03:48;;;;;;;3.80;2.15;;;;;;;12.28;60.79;150376.34;5065677;28;20058;-68
2023/06/05 03:06:17;;;;;;;3.25;2.20;;;;;;;12.33;60.38;150387.94;5066022;28;20294;-71
2023/06/05 03:08:43;;;;;;;3.28;2.30;;;;;;;12.38;61.38;150400.75;5065831;28;20100;-70
2023/06/05 03:11:09;;;;;;;2.55;1.90;;;;;;;12.36;61.53;150395.66;5065939;28;20087;-70
2023/06/05 03:13:35;;;;;;;2.95;2.15;;;;;;;12.44;60.16;150416.16;5065270;28;20334;-70
2023/06/05 03:16:03;;;;;;;2.63;1.98;;;;;;;12.45;61.28;150417.47;5065547;28;20021;-70
2023/06/05 03:18:29;;;;;;;4.63;2.22;;;;;;;12.45;61.90;150418.72;5065377;28;20099;-71
2023/06/05 03:20:56;;;;;;;7.63;2.58;;;;;;;12.47;60.22;150422.59;5065508;28;20310;-71
2023/06/05 03:23:25;;;;;;;4.55;2.70;;;;;;;12.51;61.46;150434.19;5063921;28;20035;-69
2023/06/05 03:25:51;;;;;;;4.60;2.80;;;;;;;12.54;61.23;150441.88;5065274;28;20033;-72
2023/06/05 03:28:18;;;;;;;6.25;2.75;;;;;;;12.56;61.17;150445.72;5063828;28;20424;-71
2023/06/05 03:30:45;;;;;;;4.40;2.63;;;;;;;12.56;63.04;150445.72;5065146;28;20036;-70
2023/06/05 03:33:10;;;;;;;5.82;2.88;;;;;;;12.59;62.55;150454.69;5063923;28;20028;-70
2023/06/05 03:35:36;;;;;;;8.27;2.88;;;;;;;12.65;62.30;150468.81;5065065;28;20041;-70
2023/06/05 03:38:02;;;;;;;3.97;2.95;;;;;;;12.72;61.73;150485.53;5065192;28;20029;-70
2023/06/05 03:40:29;;;;;;;5.32;2.65;;;;;;;12.77;62.25;150498.41;5064463;28;20021;-69
2023/06/05 03:42:54;;;;;;;7.43;2.88;;;;;;;12.71;62.68;150484.28;5065030;28;20032;-67
2023/06/05 03:45:20;;;;;;;7.85;2.97;;;;;;;12.70;62.78;150480.41;5064737;28;20032;-68
2023/06/05 03:47:48;;;;;;;5.35;2.42;;;;;;;12.75;62.56;150493.22;5064801;28;20024;-69
2023/06/05 03:50:17;;;;;;;4.18;2.55;;;;;;;12.78;62.09;150502.25;5065166;28;20020;-72
2023/06/05 03:52:43;;;;;;;4.00;2.22;;;;;;;12.85;62.03;150518.91;5065326;28;20087;-71
2023/06/05 03:55:09;;;;;;;4.10;2.08;;;;;;;12.90;62.00;150531.78;5055678;28;20047;-70
2023/06/05 03:57:39;;;;;;;3.45;2.30;;;;;;;12.96;62.01;150545.91;5059834;28;20085;-70
2023/06/05 04:00:09;;;;;;;2.78;2.28;;;;;;;13.01;62.71;150557.47;5065525;28;20033;-70
2023/06/05 04:02:36;;;;;;;4.47;2.22;;;;;;;13.01;62.36;150558.78;5064758;28;20044;-70
2023/06/05 04:05:03;;;;;;;3.20;2.08;;;;;;;13.02;62.12;150560.03;5063966;28;20070;-72
2023/06/05 04:07:30;;;;;;;5.72;2.38;;;;;;;13.03;61.53;150562.63;5064512;28;20033;-69
2023/06/05 04:09:55;;;;;;;3.92;2.65;;;;;;;12.80;62.82;150504.78;5064208;28;20037;-68
2023/06/05 04:12:21;;;;;;;3.95;2.45;;;;;;;12.82;64.42;150509.94;5064446;28;20035;-70
2023/06/05 04:14:47;;;;;;;4.82;2.40;;;;;;;12.85;66.11;150517.66;5065463;28;20052;-68
2023/06/05 04:17:13;;;;;;;5.60;2.50;;;;;;;12.87;66.21;150522.75;5067866;28;20029;-71
2023/06/05 04:19:40;;;;;;;4.88;2.33;;;;;;;12.86;66.26;150521.50;5065080;28;20029;-71
2023/06/05 04:22:06;;;;;;;2.78;2.42;;;;;;;12.85;67.61;150517.66;5064600;28;20092;-71
2023/06/05 04:24:31;;;;;;;3.00;2.30;;;;;;;12.80;67.79;150506.09;5064155;28;20024;-70
2023/06/05 04:27:00;;;;;;;3.47;2.05;;;;;;;12.82;67.74;150509.94;5064559;28;20317;-69
2023/06/05 04:29:26;;;;;;;2.30;2.10;;;;;;;12.82;67.83;150511.22;5064016;28;20100;-70
2023/06/05 04:31:53;;;;;;;2.40;2.17;;;;;;;12.81;67.44;150508.63;5063930;28;20036;-71
2023/06/05 04:34:19;;;;;;;5.75;2.35;;;;;;;12.83;67.92;150513.81;5063986;28;20040;-70
2023/06/05 04:36:46;;;;;;;4.80;2.28;;;;;;;12.86;67.50;150521.50;5064366;28;20078;-73
2023/06/05 04:39:15;;;;;;;2.70;2.30;;;;;;;12.95;68.34;150543.34;5063991;28;20060;-70
2023/06/05 04:41:46;;;;;;;4.60;2.47;;;;;;;12.92;69.56;150536.91;5063347;28;20233;-71
2023/06/05 04:44:18;;;;;;;6.10;2.60;;;;;;;13.06;68.64;150571.59;5043568;28;20034;-70
2023/06/05 04:46:45;;;;;;;4.60;2.55;;;;;;;13.11;68.80;150584.47;5061395;28;20131;-71
2023/06/05 04:49:15;;;;;;;4.20;2.30;;;;;;;13.18;68.62;150601.19;5063597;28;20021;-71
2023/06/05 04:51:42;;;;;;;3.85;2.50;;;;;;;13.17;68.92;150597.28;5063153;28;20063;-73
2023/06/05 04:54:08;;;;;;;4.63;2.65;;;;;;;13.24;67.61;150615.28;5063443;28;20068;-69
2023/06/05 04:56:34;;;;;;;4.43;2.28;;;;;;;13.26;67.06;150620.44;5063594;28;20033;-69
2023/06/05 04:59:03;;;;;;;4.47;2.55;;;;;;;13.41;66.69;150657.72;5063022;28;20029;-69
2023/06/05 05:01:29;;;;;;;3.20;2.40;;;;;;;13.38;68.37;150650.03;5062785;28;20036;-69
2023/06/05 05:03:55;;;;;;;4.30;2.70;;;;;;;13.37;68.08;150648.75;5063754;28;20345;-68
2023/06/05 05:06:21;;;;;;;4.78;2.38;;;;;;;13.23;69.86;150614.00;5061898;28;20037;-71
2023/06/05 05:08:50;;;;;;;2.92;2.50;;;;;;;13.33;69.86;150638.44;5063510;28;20041;-68
2023/06/05 05:11:19;;;;;;;4.32;2.60;;;;;;;13.29;72.92;150628.13;5063170;28;20036;-70
2023/06/05 05:13:45;;;;;;;5.80;2.50;;;;;;;13.29;71.09;150628.13;5063367;28;20056;-70
2023/06/05 05:16:11;;;;;;;3.00;2.10;;;;;;;13.19;69.81;150603.72;5063455;28;20031;-70
2023/06/05 05:18:43;;;;;;;3.05;2.30;;;;;;;13.25;70.58;150617.84;5063330;28;20237;-70
2023/06/05 05:21:08;;;;;;;5.75;3.13;;;;;;;13.22;73.40;150611.41;5063298;28;20060;-72
2023/06/05 05:23:34;;;;;;;3.40;2.55;;;;;;;13.15;73.94;150593.44;5063599;28;20759;-70
2023/06/05 05:26:01;;;;;;;5.53;2.67;;;;;;;13.09;72.80;150579.31;5063531;28;20100;-71
2023/06/05 05:28:27;;;;;;;4.00;2.30;;;;;;;13.15;73.36;150593.44;5063165;28;20021;-69
2023/06/05 05:30:55;;;;;;;3.85;2.35;;;;;;;13.13;76.89;150589.59;5063055;28;20098;-71
2023/06/05 05:33:22;;;;;;;6.35;2.92;;;;;;;13.11;75.93;150583.16;5062910;28;20029;-70
2023/06/05 05:35:48;;;;;;;5.60;3.00;;;;;;;13.15;77.15;150592.16;5063157;28;20028;-70
2023/06/05 05:38:14;;;;;;;5.65;3.28;;;;;;;13.20;75.74;150605.03;5063127;28;20221;-68
2023/06/05 05:40:40;;;;;;;4.00;3.22;;;;;;;13.21;76.92;150608.88;5062682;28;20063;-69
2023/06/05 05:43:05;;;;;;;5.35;2.80;;;;;;;13.20;76.44;150606.31;5061881;28;20017;-69
2023/06/05 05:45:31;;;;;;;5.53;3.30;;;;;;;13.16;76.19;150596.03;5057840;28;20088;-67
2023/06/05 05:47:57;;;;;;;6.32;3.30;;;;;;;13.13;75.23;150589.59;5044523;28;20195;-68
2023/06/05 05:50:22;;;;;;;3.67;2.95;;;;;;;13.23;75.86;150614.00;5063015;28;20349;-66
2023/06/05 05:52:50;;;;;;;4.70;3.17;;;;;;;13.22;75.87;150611.41;5062864;28;20037;-68
2023/06/05 05:55:16;;;;;;;6.38;3.03;;;;;;;13.17;76.15;150597.28;5063195;28;20063;-68
2023/06/05 05:57:41;;;;;;;4.88;2.78;;;;;;;13.23;75.84;150614.00;5066752;28;20048;-67
2023/06/05 06:00:09;;;;;;;4.78;2.70;;;;;;;13.22;73.45;150610.16;5066649;28;20033;-66
2023/06/05 06:02:35;;;;;;;4.85;2.70;;;;;;;13.22;74.81;150611.41;5066836;28;20321;-67
2023/06/05 06:05:04;;;;;;;3.60;2.28;;;;;;;13.12;73.85;150587.06;5066682;28;20099;-67
2023/06/05 06:07:31;;;;;;;3.83;2.45;;;;;;;13.18;74.17;150599.88;5066280;28;20040;-67
2023/06/05 06:09:56;;;;;;;3.88;2.80;;;;;;;13.13;73.82;150588.31;5066834;28;20037;-67
2023/06/05 06:12:22;;;;;;;3.15;2.42;;;;;;;13.09;76.33;150578.03;5065390;28;20050;-66
2023/06/05 06:14:48;;;;;;;4.82;2.30;;;;;;;13.05;75.93;150567.75;5067164;28;20028;-67
2023/06/05 06:17:14;;;;;;;4.78;2.60;;;;;;;12.98;75.15;150551.03;5046824;28;20056;-67
2023/06/05 06:19:40;;;;;;;3.65;2.30;;;;;;;13.09;75.20;150578.03;5061746;28;20341;-69
2023/06/05 06:22:11;;;;;;;4.72;2.92;;;;;;;13.07;75.78;150572.91;5066683;28;20027;-68
2023/06/05 06:24:41;;;;;;;2.83;2.22;;;;;;;13.00;75.60;150554.88;5066609;28;20036;-67
2023/06/05 06:27:09;;;;;;;2.65;2.30;;;;;;;13.17;75.92;150598.59;5066675;28;20025;-68
2023/06/05 06:29:34;;;;;;;2.97;2.63;;;;;;;13.17;75.23;150597.28;5066503;28;20063;-67
2023/06/05 06:32:00;;;;;;;4.20;2.45;;;;;;;13.16;76.41;150594.75;5066463;28;20233;-67
2023/06/05 06:34:26;;;;;;;3.55;2.65;;;;;;;13.24;75.86;150616.59;5066084;28;20063;-66
2023/06/05 06:36:52;;;;;;;4.90;2.60;;;;;;;13.27;76.10;150624.28;5066262;28;20052;-67
2023/06/05 06:39:22;;;;;;;3.47;2.63;;;;;;;13.34;76.07;150639.69;5066300;28;20028;-67
2023/06/05 06:41:47;;;;;;;4.65;3.08;;;;;;;13.48;75.23;150674.47;5046505;28;20022;-67
2023/06/05 06:44:13;;;;;;;10.90;3.45;;;;;;;13.61;75.39;150707.84;5066031;28;20033;-68
2023/06/05 06:46:38;;;;;;;3.80;2.72;;;;;;;13.71;74.75;150733.59;5066056;28;20037;-68
2023/06/05 06:49:06;;;;;;;6.78;3.25;;;;;;;13.72;74.78;150734.88;5066062;28;20028;-68
2023/06/05 06:51:32;;;;;;;3.20;2.90;;;;;;;13.85;73.87;150767.00;5065847;28;20309;-68
2023/06/05 06:53:58;;;;;;;4.40;2.45;;;;;;;13.94;73.47;150791.44;5065912;28;20051;-67
2023/06/05 06:56:23;;;;;;;6.65;2.78;;;;;;;13.98;71.61;150800.47;5066080;28;20032;-68
2023/06/05 06:58:49;;;;;;;4.28;2.70;;;;;;;14.15;71.13;150842.84;5065721;28;20341;-69
2023/06/05 07:01:15;;;;;;;4.40;2.55;;;;;;;14.26;71.12;150869.88;5066282;28;20084;-69
2023/06/05 07:03:41;;;;;;;6.03;2.83;;;;;;;14.39;71.66;150903.28;5065707;28;20203;-68
2023/06/05 07:06:09;;;;;;;4.85;3.10;;;;;;;14.34;70.93;150890.47;5065744;28;20089;-68
2023/06/05 07:08:34;;;;;;;5.10;2.53;;;;;;;14.26;69.74;150871.16;5065846;28;20314;-68
2023/06/05 07:11:00;;;;;;;4.95;2.67;;;;;;;14.34;71.12;150890.47;5064441;28;20063;-69
2023/06/05 07:13:26;;;;;;;4.72;2.55;;;;;;;14.48;70.41;150925.19;5065575;28;20032;-70
2023/06/05 07:15:52;;;;;;;3.95;2.45;;;;;;;14.59;68.59;150952.19;5061185;28;20034;-69
2023/06/05 07:18:17;;;;;;;6.72;2.50;;;;;;;14.60;68.95;150954.78;5048888;28;20020;-68
2023/06/05 07:20:43;;;;;;;3.95;2.45;;;;;;;14.71;68.83;150981.81;5065672;28;20033;-68
2023/06/05 07:23:09;;;;;;;7.18;3.00;;;;;;;14.84;69.69;151016.56;5065476;28;20259;-67
2023/06/05 07:25:34;;;;;;;4.75;2.38;;;;;;;14.94;67.79;151039.72;5065151;28;20075;-68
2023/06/05 07:28:00;;;;;;;6.70;2.83;;;;;;;15.02;66.41;151061.59;5065375;28;20029;-68
2023/06/05 07:30:29;;;;;;;3.25;2.35;;;;;;;15.19;67.70;151102.75;5065144;28;20032;-69
2023/06/05 07:32:55;;;;;;;3.40;2.60;;;;;;;15.09;66.29;151078.34;5065194;28;20170;-68
2023/06/05 07:35:21;;;;;;;4.25;2.90;;;;;;;15.24;66.69;151114.38;5065125;28;20017;-68
2023/06/05 07:37:47;;;;;;;4.30;3.20;;;;;;;15.11;66.00;151082.19;5064023;28;20025;-68
2023/06/05 07:40:12;;;;;;;3.25;2.15;;;;;;;15.15;65.53;151093.75;5065169;28;20044;-69
2023/06/05 07:42:38;;;;;;;4.82;2.97;;;;;;;15.10;64.87;151080.88;5065079;28;20043;-68
2023/06/05 07:45:05;;;;;;;7.32;3.08;;;;;;;15.03;65.24;151062.88;5064697;28;20336;-68
2023/06/05 07:47:31;;;;;;;8.02;3.13;;;;;;;15.16;65.51;151096.34;5064473;28;20025;-69
2023/06/05 07:50:01;;;;;;;3.67;3.00;;;;;;;15.47;66.11;151172.28;5064921;28;20029;-68
2023/06/05 07:52:33;;;;;;;8.75;3.13;;;;;;;15.46;64.81;151169.69;5059681;28;20029;-67
2023/06/05 07:54:59;;;;;;;3.75;2.83;;;;;;;15.39;65.04;151153.00;5053553;28;20043;-67
2023/06/05 07:57:25;;;;;;;5.00;2.50;;;;;;;15.53;64.84;151189.03;5064185;28;20092;-68
2023/06/05 07:59:51;;;;;;;3.63;2.70;;;;;;;15.51;64.18;151182.56;5064274;28;20029;-67
2023/06/05 08:02:20;;;;;;;5.15;2.85;;;;;;;15.68;64.34;151225.06;5055705;28;20048;-70
2023/06/05 08:04:46;;;;;;;4.38;2.42;;;;;;;15.66;62.78;151221.19;5059856;28;20031;-68
2023/06/05 08:07:12;;;;;;;3.90;2.97;;;;;;;15.77;64.40;151248.22;5064323;28;20045;-68
2023/06/05 08:09:38;;;;;;;5.47;3.00;;;;;;;15.56;64.74;151194.16;5062915;28;20041;-68
2023/06/05 08:12:04;;;;;;;4.65;2.40;;;;;;;15.53;65.32;151187.69;5064336;28;20028;-67
2023/06/05 08:14:30;;;;;;;6.57;3.03;;;;;;;15.54;65.09;151191.56;5064113;28;20369;-67
2023/06/05 08:16:55;;;;;;;5.80;2.70;;;;;;;15.54;66.59;151191.56;5063040;28;20029;-67
2023/06/05 08:19:22;;;;;;;4.05;2.90;;;;;;;15.54;66.53;151190.28;5063147;28;20305;-67
2023/06/05 08:21:52;;;;;;;2.88;2.35;;;;;;;15.46;64.71;151169.69;5063831;28;20025;-68
2023/06/05 08:24:17;;;;;;;4.32;2.40;;;;;;;15.60;64.42;151204.44;5063988;28;20056;-67
2023/06/05 08:26:43;;;;;;;4.72;3.08;;;;;;;15.66;63.84;151219.88;5064058;28;20079;-67
2023/06/05 08:29:08;;;;;;;6.97;2.90;;;;;;;15.33;64.94;151138.84;5064249;28;20032;-68
2023/06/05 08:31:36;;;;;;;4.75;2.80;;;;;;;15.66;64.87;151219.88;5062564;28;20139;-67
2023/06/05 08:34:02;;;;;;;5.35;2.80;;;;;;;15.68;64.92;151226.31;5063938;28;20025;-67
2023/06/05 08:36:28;;;;;;;7.35;2.67;;;;;;;15.80;64.12;151255.97;5063963;28;20043;-66
2023/06/05 08:38:54;;;;;;;4.32;2.40;;;;;;;15.79;64.43;151253.44;5064128;28;20029;-67
2023/06/05 08:41:21;;;;;;;3.78;2.20;;;;;;;15.83;63.13;151262.41;5062577;28;20313;-68
2023/06/05 08:43:47;;;;;;;4.10;2.03;;;;;;;15.83;61.67;151262.41;5064022;28;20041;-66
2023/06/05 08:46:13;;;;;;;6.15;2.75;;;;;;;15.97;62.50;151298.47;5063768;28;20047;-66
2023/06/05 08:48:43;;;;;;;2.78;2.38;;;;;;;15.84;62.00;151266.28;5063299;28;20028;-67
2023/06/05 08:51:14;;;;;;;2.47;2.00;;;;;;;16.19;61.38;151353.84;5063664;28;20050;-68
2023/06/05 08:53:44;;;;;;;5.72;2.08;;;;;;;16.48;60.88;151424.69;5063441;28;20082;-67
2023/06/05 08:56:11;;;;;;;5.25;1.92;;;;;;;16.49;56.82;151427.25;5063696;28;20088;-68
2023/06/05 08:58:37;;;;;;;5.57;2.40;;;;;;;16.69;59.14;151477.53;5063353;28;20033;-67
2023/06/05 09:01:03;;;;;;;5.50;2.15;;;;;;;16.81;57.50;151508.41;5063379;28;20044;-66
2023/06/05 09:03:29;;;;;;;4.80;2.20;;;;;;;16.79;57.63;151501.97;5063354;28;20025;-67
2023/06/05 09:05:55;;;;;;;5.20;2.28;;;;;;;16.58;59.26;151450.44;5063926;28;20049;-68
2023/06/05 09:08:34;;;;;;;3.25;2.60;;;;;;;16.83;58.81;151512.28;5063516;28;20028;-67
2023/06/05 09:11:25;;;;;;;4.30;2.05;;;;;;;17.13;58.90;151588.38;5063289;28;20032;-65
2023/06/05 09:13:51;;;;;;;3.72;2.10;;;;;;;16.95;56.68;151543.25;5063201;28;20033;-67
2023/06/05 09:16:37;;;;;;;4.00;2.10;;;;;;;17.22;58.00;151610.28;5063228;28;20040;-67
2023/06/05 09:19:03;;;;;;;3.80;1.95;;;;;;;17.03;56.65;151563.88;5063091;28;20044;-67
2023/06/05 09:21:33;;;;;;;3.80;2.03;;;;;;;16.78;54.57;151499.41;5062899;28;20100;-66
2023/06/05 09:24:15;;;;;;;4.65;1.88;;;;;;;16.69;54.09;151477.53;5063037;28;20092;-67
2023/06/05 09:26:56;;;;;;;4.30;2.15;;;;;;;16.69;55.71;151477.53;5043350;28;20029;-67
2023/06/05 09:29:23;;;;;;;3.20;2.03;;;;;;;16.67;55.72;151472.34;5062337;28;20036;-67
2023/06/05 09:31:50;;;;;;;3.00;1.88;;;;;;;16.92;55.94;151535.53;5062939;28;20048;-67
2023/06/05 09:34:29;;;;;;;4.05;1.90;;;;;;;16.95;55.23;151541.97;5062759;28;20051;-67
2023/06/05 09:36:59;;;;;;;4.97;1.90;;;;;;;16.79;54.07;151501.97;5062744;28;20178;-66
2023/06/05 09:39:27;;;;;;;2.25;1.52;;;;;;;16.69;54.17;151478.78;5062405;28;20089;-65
2023/06/05 09:41:54;;;;;;;5.75;1.95;;;;;;;16.60;56.82;151455.56;5062902;28;20033;-67
2023/06/05 09:44:20;;;;;;;5.25;2.33;;;;;;;16.32;56.08;151386.06;5063085;28;20047;-67
2023/06/05 09:46:56;;;;;;;3.30;1.92;;;;;;;16.41;56.41;151407.94;5062774;28;20082;-67
2023/06/05 09:49:29;;;;;;;6.50;2.13;;;;;;;16.39;57.96;151404.09;5062624;28;20032;-65
2023/06/05 09:51:59;;;;;;;2.65;1.92;;;;;;;16.29;59.66;151378.34;5062876;28;20067;-65
2023/06/05 09:54:27;;;;;;;5.43;2.20;;;;;;;16.14;61.92;151339.69;5061558;28;20104;-66
2023/06/05 09:57:02;;;;;;;3.60;2.20;;;;;;;16.17;58.93;151348.69;5062716;28;20340;-66
2023/06/05 09:59:32;;;;;;;4.65;2.30;;;;;;;16.05;60.08;151317.81;5044260;28;20021;-65
2023/06/05 10:02:04;;;;;;;4.57;2.25;;;;;;;15.64;65.62;151216.03;5059721;28;20103;-67
2023/06/05 10:04:46;;;;;;;11.98;2.83;;;;;;;15.44;68.98;151165.81;5062515;28;20033;-66
2023/06/05 10:07:12;;;;;;;6.53;2.43;;;;;;;14.95;69.83;151043.59;5063102;28;20044;-66
2023/06/05 10:09:39;;;;;;;9.43;2.58;;;;;;;14.84;71.76;151016.56;5062465;28;20446;-66
2023/06/05 10:12:08;;;;;;;3.38;2.40;;;;;;;14.76;72.58;150995.97;5062807;28;20088;-65
2023/06/05 10:14:35;;;;;;;4.50;2.17;;;;;;;14.44;75.15;150916.19;5062736;28;20029;-66
2023/06/05 10:17:02;;;;;;;3.13;2.20;;;;;;;14.41;74.64;150908.47;5062445;28;20036;-66
2023/06/05 10:19:28;;;;;;;3.25;1.95;;;;;;;14.43;74.57;150913.59;5062270;28;20028;-66
2023/06/05 10:21:53;;;;;;;2.65;2.00;;;;;;;14.30;75.17;150881.44;5062624;28;20121;-66
2023/06/05 10:24:27;;;;;;;2.30;1.80;;;;;;;14.39;74.52;150902.03;5062558;28;20047;-68
2023/06/05 10:27:09;;;;;;;3.72;2.30;;;;;;;14.66;76.18;150971.56;5062627;28;20085;-67
2023/06/05 10:30:16;;;;;;;2.40;2.20;;;;;;;14.80;76.62;151006.25;5042336;28;20030;-67
2023/06/05 10:33:09;;;;;;;6.40;2.80;;;;;;;14.99;76.30;151053.88;5040638;28;20025;-67
2023/06/05 10:35:50;;;;;;;3.75;3.15;;;;;;;15.09;74.21;151077.03;5042146;28;20037;-67
2023/06/05 10:38:24;;;;;;;4.90;2.40;;;;;;;14.97;73.09;151047.44;5056853;28;20053;-67
2023/06/05 10:40:58;;;;;;;4.68;3.10;;;;;;;15.19;73.81;151102.75;5056630;28;20032;-66
2023/06/05 10:43:49;;;;;;;6.15;2.85;;;;;;;15.41;77.04;151158.13;5066079;28;20029;-66
2023/06/05 10:46:30;;;;;;;5.35;2.55;;;;;;;15.73;72.26;151237.91;5065997;28;20096;-67
2023/06/05 10:49:07;;;;;;;3.45;2.80;;;;;;;15.87;73.35;151274.00;5066119;28;20033;-67
2023/06/05 10:51:42;;;;;;;3.40;3.00;;;;;;;15.99;73.24;151302.31;5065695;28;20104;-67
2023/06/05 10:54:24;;;;;;;3.70;2.88;;;;;;;16.05;72.17;151319.06;5064975;28;20096;-67
2023/06/05 10:56:56;;;;;;;7.73;2.67;;;;;;;16.19;69.25;151352.59;5066052;28;20408;-68
2023/06/05 10:59:33;;;;;;;2.22;1.92;;;;;;;16.32;67.53;151386.06;5065800;28;20136;-67
2023/06/05 11:02:08;;;;;;;4.35;2.72;;;;;;;16.46;65.97;151419.53;5065555;28;20241;-67
2023/06/05 11:04:46;;;;;;;3.13;2.08;;;;;;;16.53;66.88;151438.88;5065673;28;20100;-66
2023/06/05 11:07:22;;;;;;;3.03;2.50;;;;;;;16.58;68.18;151450.44;5065310;28;20041;-66
2023/06/05 11:10:04;;;;;;;6.30;2.58;;;;;;;16.63;64.60;151463.34;5065754;28;20100;-66
2023/06/05 11:12:35;;;;;;;4.10;2.13;;;;;;;16.60;64.47;151455.56;5065579;28;20055;-66
2023/06/05 11:15:05;;;;;;;5.40;3.05;;;;;;;16.35;67.84;151393.78;5054908;28;20266;-66
2023/06/05 11:17:32;;;;;;;5.90;2.45;;;;;;;16.43;65.71;151413.06;5064074;28;20029;-67
2023/06/05 11:19:59;;;;;;;3.00;2.47;;;;;;;16.31;65.32;151382.19;5065137;28;20176;-68
2023/06/05 11:22:29;;;;;;;7.97;2.33;;;;;;;16.20;65.67;151356.44;5064988;28;20050;-68
2023/06/05 11:25:13;;;;;;;3.42;2.38;;;;;;;16.32;65.46;151384.78;5064937;28;20029;-67
2023/06/05 11:27:58;;;;;;;4.55;2.50;;;;;;;16.03;68.23;151313.94;5049492;28;20048;-66
2023/06/05 11:30:31;;;;;;;5.18;2.47;;;;;;;16.07;66.40;151322.94;5064733;28;20032;-68